Time;durP1;ratioP1;P1;durP2;ratioP2;P2;SDS_P1;SDS_P2;PMS_P1;PMS_P2;Temp;Humidity;BMP_temperature;BMP_pressure;BME280_temperature;BME280_humidity;BME280_pressure;Samples;Min_cycle;Max_cycle;Signal;HPM_P1;HPM_P2
2023/03/05 00:01:24;;;;;;;0.10;0.10;;;3.10;99.90;;;;;;6153537;23;20018;-81
2023/03/05 00:03:53;;;;;;;;;;;3.10;99.90;;;;;;6178199;23;20022;-82
2023/03/05 00:06:20;;;;;;;0.00;0.00;;;3.10;99.90;;;;;;6153667;23;20286;-81
2023/03/05 00:08:47;;;;;;;0.00;0.00;;;3.10;99.90;;;;;;6128589;23;20071;-82
2023/03/05 00:11:13;;;;;;;0.00;0.00;;;3.10;99.90;;;;;;6178323;23;20026;-82
2023/03/05 00:13:38;;;;;;;0.00;0.00;;;3.10;99.90;;;;;;6153663;23;20104;-82
2023/03/05 00:16:06;;;;;;;0.00;0.00;;;3.20;99.90;;;;;;6154896;23;20014;-82
2023/03/05 00:18:33;;;;;;;0.00;0.00;;;3.10;99.90;;;;;;6153714;23;20100;-82
2023/03/05 00:20:58;;;;;;;0.68;0.05;;;3.10;99.90;;;;;;6177527;23;20573;-82
2023/03/05 00:23:24;;;;;;;0.00;0.00;;;3.10;99.90;;;;;;6178201;23;20061;-82
2023/03/05 00:25:50;;;;;;;0.00;0.00;;;3.10;99.90;;;;;;6179433;23;20080;-82
2023/03/05 00:28:16;;;;;;;0.00;0.00;;;3.10;99.90;;;;;;6130662;23;20029;-82
2023/03/05 00:30:42;;;;;;;0.57;0.00;;;3.10;99.90;;;;;;6154685;23;20528;-82
2023/03/05 00:33:09;;;;;;;0.10;0.00;;;3.10;99.90;;;;;;6179897;23;20268;-82
2023/03/05 00:35:43;;;;;;;0.03;0.00;;;3.10;99.90;;;;;;6155077;23;20025;-82
2023/03/05 00:38:10;;;;;;;0.00;0.00;;;3.10;99.90;;;;;;6180801;23;20519;-82
2023/03/05 00:40:40;;;;;;;0.10;0.10;;;3.20;99.90;;;;;;6156941;23;20017;-82
2023/03/05 00:43:07;;;;;;;0.00;0.00;;;3.10;99.90;;;;;;6156393;23;20088;-82
2023/03/05 00:45:32;;;;;;;;;;;3.00;99.90;;;;;;6180701;23;20069;-81
2023/03/05 00:47:58;;;;;;;0.00;0.00;;;3.60;99.90;;;;;;6156407;23;20318;-82
2023/03/05 00:50:24;;;;;;;0.00;0.00;;;3.00;99.90;;;;;;6180158;23;20320;-82
2023/03/05 00:52:50;;;;;;;0.10;0.10;;;4.30;99.90;;;;;;6154463;23;20458;-82
2023/03/05 00:55:16;;;;;;;0.00;0.00;;;3.00;99.90;;;;;;6155412;23;20025;-82
2023/03/05 00:57:42;;;;;;;0.40;0.40;;;3.00;99.90;;;;;;6156766;23;20569;-82
2023/03/05 01:00:09;;;;;;;0.00;0.00;;;3.10;99.90;;;;;;6156052;23;20024;-82
2023/03/05 01:02:34;;;;;;;0.00;0.00;;;3.00;99.90;;;;;;6130319;23;20446;-82
2023/03/05 01:05:00;;;;;;;0.00;0.00;;;3.00;99.90;;;;;;6156296;23;20096;-81
2023/03/05 01:07:26;;;;;;;0.00;0.00;;;2.90;99.90;;;;;;6155185;23;20096;-82
2023/03/05 01:09:51;;;;;;;0.00;0.00;;;2.90;99.90;;;;;;6154938;23;20397;-82
2023/03/05 01:12:17;;;;;;;0.03;0.03;;;2.90;99.90;;;;;;6155122;23;20100;-82
2023/03/05 01:14:43;;;;;;;0.10;0.10;;;2.90;99.90;;;;;;6130237;23;20017;-82
2023/03/05 01:17:08;;;;;;;0.00;0.00;;;3.00;99.90;;;;;;6179424;23;20017;-81
2023/03/05 01:19:34;;;;;;;0.00;0.00;;;2.90;99.90;;;;;;6179930;23;20064;-81
2023/03/05 01:22:00;;;;;;;0.00;0.00;;;3.10;99.90;;;;;;6178930;23;20021;-82
2023/03/05 01:24:25;;;;;;;0.00;0.00;;;2.90;99.90;;;;;;6179544;23;20032;-82
2023/03/05 01:26:51;;;;;;;0.03;0.00;;;3.00;99.90;;;;;;6154263;23;20075;-81
2023/03/05 01:29:17;;;;;;;0.00;0.00;;;3.20;99.90;;;;;;6154950;23;20334;-82
2023/03/05 01:31:43;;;;;;;0.00;0.00;;;2.80;99.90;;;;;;6154802;23;20064;-82
2023/03/05 01:34:08;;;;;;;0.97;0.03;;;2.80;99.90;;;;;;6154187;23;20082;-82
2023/03/05 01:36:34;;;;;;;0.00;0.00;;;2.80;99.90;;;;;;6155846;23;20017;-82
2023/03/05 01:39:01;;;;;;;0.00;0.00;;;2.80;99.90;;;;;;6154057;23;20080;-82
2023/03/05 01:41:26;;;;;;;;;;;2.80;99.90;;;;;;6179877;23;20068;-82
2023/03/05 01:43:52;;;;;;;0.10;0.03;;;2.80;99.90;;;;;;6153983;23;19920;-82
2023/03/05 01:46:37;;;;;;;0.00;0.00;;;3.40;99.90;;;;;;6156397;23;20096;-81
2023/03/05 01:49:24;;;;;;;0.00;0.00;;;2.80;99.90;;;;;;6154363;23;20071;-81
2023/03/05 01:51:53;;;;;;;0.00;0.00;;;2.90;99.90;;;;;;6154602;23;20021;-81
2023/03/05 01:54:23;;;;;;;0.13;0.05;;;2.70;99.90;;;;;;6179298;23;20095;-81
2023/03/05 01:56:51;;;;;;;0.00;0.00;;;2.80;99.90;;;;;;6156222;23;20021;-82
2023/03/05 01:59:18;;;;;;;0.10;0.00;;;2.70;99.90;;;;;;6155949;23;20024;-81
2023/03/05 02:01:47;;;;;;;0.20;0.05;;;2.70;99.90;;;;;;6156143;23;20049;-82
2023/03/05 02:04:16;;;;;;;0.08;0.03;;;2.70;99.90;;;;;;6155489;23;20047;-82
2023/03/05 02:06:43;;;;;;;0.00;0.00;;;2.70;99.90;;;;;;6179285;23;20040;-81
2023/03/05 02:09:09;;;;;;;;;;;2.70;99.90;;;;;;6154861;23;20343;-81
2023/03/05 02:11:36;;;;;;;0.00;0.00;;;2.60;99.90;;;;;;6130127;23;19916;-81
2023/03/05 02:14:02;;;;;;;0.10;0.10;;;2.60;99.90;;;;;;6179081;23;20516;-82
2023/03/05 02:16:34;;;;;;;0.10;0.10;;;2.60;99.90;;;;;;6179140;23;20029;-81
2023/03/05 02:19:03;;;;;;;0.00;0.00;;;2.50;99.90;;;;;;6154194;23;20104;-81
2023/03/05 02:21:44;;;;;;;0.00;0.00;;;2.50;99.90;;;;;;6154252;23;20068;-82
2023/03/05 02:24:30;;;;;;;0.10;0.10;;;2.50;99.90;;;;;;6155701;23;20477;-82
2023/03/05 02:26:56;;;;;;;0.00;0.00;;;2.40;99.90;;;;;;6154615;23;20096;-82
2023/03/05 02:29:23;;;;;;;0.00;0.00;;;2.40;99.90;;;;;;6155696;23;20025;-81
2023/03/05 02:31:48;;;;;;;0.03;0.03;;;2.30;99.90;;;;;;6155734;23;20014;-82
2023/03/05 02:34:14;;;;;;;0.00;0.00;;;2.30;99.90;;;;;;6178649;23;20026;-82
2023/03/05 02:36:40;;;;;;;0.33;0.17;;;2.30;99.90;;;;;;6129585;23;20346;-82
2023/03/05 02:39:07;;;;;;;0.00;0.00;;;2.40;99.90;;;;;;6155421;23;20041;-81
2023/03/05 02:41:33;;;;;;;0.10;0.00;;;2.30;99.90;;;;;;6179138;23;20060;-82
2023/03/05 02:43:58;;;;;;;0.00;0.00;;;2.70;99.90;;;;;;6179110;23;20021;-82
2023/03/05 02:46:24;;;;;;;0.00;0.00;;;1.60;99.90;;;;;;6153819;23;20517;-82
2023/03/05 02:48:50;;;;;;;0.00;0.00;;;2.30;99.90;;;;;;6178419;23;20021;-82
2023/03/05 02:51:16;;;;;;;0.10;0.10;;;2.30;99.90;;;;;;6153540;23;20077;-82
2023/03/05 02:53:41;;;;;;;0.10;0.00;;;3.30;99.90;;;;;;6155544;23;20100;-82
2023/03/05 02:56:07;;;;;;;0.30;0.30;;;2.30;99.90;;;;;;6153489;23;20522;-82
2023/03/05 02:58:33;;;;;;;0.00;0.00;;;2.50;99.90;;;;;;6178895;23;20061;-82
2023/03/05 03:00:58;;;;;;;0.57;0.23;;;2.50;99.90;;;;;;6154053;23;20101;-82
2023/03/05 03:03:24;;;;;;;0.10;0.10;;;2.30;99.90;;;;;;6153607;23;20084;-82
2023/03/05 03:05:50;;;;;;;0.00;0.00;;;2.20;99.90;;;;;;6178488;23;20100;-82
2023/03/05 03:08:16;;;;;;;0.00;0.00;;;2.30;99.90;;;;;;6153679;23;20104;-82
2023/03/05 03:10:41;;;;;;;0.23;0.00;;;2.30;99.90;;;;;;6178803;23;20039;-81
2023/03/05 03:13:07;;;;;;;0.00;0.00;;;2.30;99.90;;;;;;6178440;23;20443;-82
2023/03/05 03:15:33;;;;;;;0.00;0.00;;;2.30;99.90;;;;;;6155395;23;20097;-82
2023/03/05 03:17:59;;;;;;;0.10;0.10;;;2.20;99.90;;;;;;6153616;23;20021;-82
2023/03/05 03:20:25;;;;;;;0.03;0.00;;;2.40;99.90;;;;;;6152845;23;20048;-81
2023/03/05 03:22:51;;;;;;;0.00;0.00;;;2.30;99.90;;;;;;6155630;23;20096;-82
2023/03/05 03:25:21;;;;;;;0.00;0.00;;;2.30;99.90;;;;;;6153205;23;20018;-81
2023/03/05 03:27:47;;;;;;;0.20;0.00;;;2.30;99.90;;;;;;6153623;23;20014;-81
2023/03/05 03:30:14;;;;;;;0.00;0.00;;;2.30;99.90;;;;;;6178031;23;20334;-81
2023/03/05 03:32:40;;;;;;;0.00;0.00;;;2.30;99.90;;;;;;6153740;23;20100;-81
2023/03/05 03:35:06;;;;;;;0.30;0.23;;;2.30;99.90;;;;;;6178390;23;20053;-82
2023/03/05 03:37:32;;;;;;;0.10;0.10;;;2.30;99.90;;;;;;6155132;23;20342;-81
2023/03/05 03:39:58;;;;;;;0.00;0.00;;;2.30;99.90;;;;;;6178708;23;20057;-81
2023/03/05 03:42:23;;;;;;;0.00;0.00;;;3.00;99.90;;;;;;6178247;23;20017;-81
2023/03/05 03:44:49;;;;;;;0.00;0.00;;;2.30;99.90;;;;;;6178387;23;20437;-81
2023/03/05 03:47:16;;;;;;;0.00;0.00;;;2.30;99.90;;;;;;6177693;23;20023;-82
2023/03/05 03:49:41;;;;;;;0.00;0.00;;;2.40;99.90;;;;;;6153425;23;20478;-81
2023/03/05 03:52:08;;;;;;;0.00;0.00;;;2.30;99.90;;;;;;6154935;23;20017;-81
2023/03/05 03:54:34;;;;;;;0.00;0.00;;;2.90;99.90;;;;;;6153499;23;20017;-81
2023/03/05 03:56:59;;;;;;;0.00;0.00;;;2.30;99.90;;;;;;6153520;23;20052;-81
2023/03/05 03:59:25;;;;;;;0.20;0.10;;;2.20;99.90;;;;;;6153551;23;20021;-82
2023/03/05 04:01:51;;;;;;;0.00;0.00;;;2.70;99.90;;;;;;6180574;23;20021;-81
2023/03/05 04:04:16;;;;;;;0.27;0.27;;;2.80;99.90;;;;;;6180140;23;20494;-82
2023/03/05 04:06:43;;;;;;;0.23;0.23;;;2.20;99.90;;;;;;6155303;23;20024;-81
2023/03/05 04:09:08;;;;;;;0.00;0.00;;;2.30;99.90;;;;;;6155683;23;20430;-82
2023/03/05 04:11:35;;;;;;;0.00;0.00;;;2.30;99.90;;;;;;6180353;23;20075;-81
2023/03/05 04:14:02;;;;;;;0.00;0.00;;;2.80;99.90;;;;;;6155601;23;20025;-81
2023/03/05 04:16:28;;;;;;;0.00;0.00;;;2.90;99.90;;;;;;6156802;23;20468;-81
2023/03/05 04:18:53;;;;;;;0.00;0.00;;;2.20;99.90;;;;;;6157273;23;20025;-81
2023/03/05 04:21:19;;;;;;;0.00;0.00;;;2.20;99.90;;;;;;6156213;23;20517;-81
2023/03/05 04:23:45;;;;;;;0.23;0.00;;;2.20;99.90;;;;;;6180705;23;20021;-81
2023/03/05 04:26:10;;;;;;;0.00;0.00;;;2.20;99.90;;;;;;6157004;23;20104;-81
2023/03/05 04:28:36;;;;;;;0.10;0.10;;;2.80;99.90;;;;;;6179978;23;20018;-81
2023/03/05 04:31:02;;;;;;;0.37;0.00;;;2.20;99.90;;;;;;6157016;23;20052;-81
2023/03/05 04:33:28;;;;;;;0.00;0.00;;;2.20;99.90;;;;;;6179746;23;20064;-81
2023/03/05 04:35:54;;;;;;;0.00;0.00;;;3.00;99.90;;;;;;6180418;23;20017;-81
2023/03/05 04:38:20;;;;;;;0.00;0.00;;;2.10;99.90;;;;;;6179046;23;20470;-81
2023/03/05 04:40:46;;;;;;;0.27;0.27;;;2.20;99.90;;;;;;6155536;23;20072;-81
2023/03/05 04:43:12;;;;;;;0.00;0.00;;;2.20;99.90;;;;;;6155486;23;20018;-82
2023/03/05 04:45:42;;;;;;;0.00;0.00;;;2.20;99.90;;;;;;6156528;23;20248;-82
2023/03/05 04:48:09;;;;;;;0.00;0.00;;;2.30;99.90;;;;;;6156641;23;20018;-81
2023/03/05 04:50:35;;;;;;;0.43;0.15;;;2.40;99.90;;;;;;6156289;23;20014;-81
2023/03/05 04:53:01;;;;;;;0.00;0.00;;;2.20;99.90;;;;;;6155080;23;20021;-82
2023/03/05 04:55:27;;;;;;;0.00;0.00;;;2.80;99.90;;;;;;6154852;23;20393;-82
2023/03/05 04:57:52;;;;;;;0.00;0.00;;;2.20;99.90;;;;;;6179861;23;20017;-82
2023/03/05 05:00:20;;;;;;;0.00;0.00;;;2.20;99.90;;;;;;6179423;23;20022;-82
2023/03/05 05:02:48;;;;;;;0.00;0.00;;;2.20;99.90;;;;;;6155305;23;20060;-81
2023/03/05 05:05:18;;;;;;;0.00;0.00;;;2.20;99.90;;;;;;6156767;23;20018;-81
2023/03/05 05:07:44;;;;;;;0.00;0.00;;;2.20;99.90;;;;;;6154989;23;20025;-82
2023/03/05 05:10:11;;;;;;;0.00;0.00;;;2.60;99.90;;;;;;6154989;23;20409;-82
2023/03/05 05:12:37;;;;;;;0.00;0.00;;;2.20;99.90;;;;;;6156238;23;20272;-82
2023/03/05 05:15:05;;;;;;;0.45;0.10;;;2.20;99.90;;;;;;6179752;23;20021;-82
2023/03/05 05:17:31;;;;;;;0.00;0.00;;;2.20;99.90;;;;;;6156096;23;20029;-82
2023/03/05 05:19:58;;;;;;;0.00;0.00;;;2.20;99.90;;;;;;6154947;23;20346;-82
2023/03/05 05:22:26;;;;;;;;;;;2.20;99.90;;;;;;6154490;23;20080;-81
2023/03/05 05:24:52;;;;;;;0.00;0.00;;;2.20;99.90;;;;;;6156599;23;19923;-81
2023/03/05 05:27:17;;;;;;;0.00;0.00;;;2.70;99.90;;;;;;6156556;23;20017;-82
2023/03/05 05:29:45;;;;;;;0.00;0.00;;;2.10;99.90;;;;;;6179248;23;20112;-82
2023/03/05 05:32:11;;;;;;;0.00;0.00;;;2.10;99.90;;;;;;6154948;23;20021;-81
2023/03/05 05:34:36;;;;;;;0.27;0.27;;;2.10;99.90;;;;;;6179406;23;20040;-81
2023/03/05 05:37:02;;;;;;;0.00;0.00;;;2.10;99.90;;;;;;6156555;23;20415;-82
2023/03/05 05:39:28;;;;;;;0.00;0.00;;;2.10;99.90;;;;;;6155456;23;20018;-81
2023/03/05 05:41:53;;;;;;;0.10;0.10;;;2.00;99.90;;;;;;6155740;23;20052;-81
2023/03/05 05:44:19;;;;;;;0.00;0.00;;;2.00;99.90;;;;;;6179133;23;20032;-81
2023/03/05 05:46:45;;;;;;;0.00;0.00;;;2.00;99.90;;;;;;6155597;23;20029;-82
2023/03/05 05:49:11;;;;;;;0.00;0.00;;;2.00;99.90;;;;;;6156062;23;20017;-81
2023/03/05 05:51:36;;;;;;;0.07;0.00;;;2.00;99.90;;;;;;6154265;23;20013;-81
2023/03/05 05:54:02;;;;;;;0.00;0.00;;;2.00;99.90;;;;;;6156595;23;20084;-81
2023/03/05 05:56:28;;;;;;;0.00;0.00;;;2.00;99.90;;;;;;6179003;23;20022;-81
2023/03/05 05:58:54;;;;;;;0.00;0.00;;;2.00;99.90;;;;;;6179364;23;20029;-81
2023/03/05 06:01:21;;;;;;;0.20;0.00;;;2.00;99.90;;;;;;6155922;23;20025;-81
2023/03/05 06:03:47;;;;;;;0.10;0.00;;;2.00;99.90;;;;;;6154145;23;20028;-81
2023/03/05 06:06:16;;;;;;;0.00;0.00;;;2.10;99.90;;;;;;6154626;23;20099;-81
2023/03/05 06:08:42;;;;;;;0.00;0.00;;;2.00;99.90;;;;;;6178660;23;20245;-81
2023/03/05 06:11:08;;;;;;;0.08;0.08;;;2.00;99.90;;;;;;6154282;23;20024;-81
2023/03/05 06:13:34;;;;;;;0.00;0.00;;;2.00;99.90;;;;;;6178775;23;20450;-81
2023/03/05 06:16:02;;;;;;;0.63;0.20;;;2.00;99.90;;;;;;6130060;23;20057;-81
2023/03/05 06:18:28;;;;;;;0.00;0.00;;;2.20;99.90;;;;;;6155609;23;20025;-81
2023/03/05 06:21:00;;;;;;;0.00;0.00;;;2.00;99.90;;;;;;6153917;23;20021;-81
2023/03/05 06:23:27;;;;;;;0.00;0.00;;;2.00;99.90;;;;;;6155597;23;20017;-81
2023/03/05 06:25:53;;;;;;;0.00;0.00;;;2.00;99.90;;;;;;6155976;23;20084;-81
2023/03/05 06:28:19;;;;;;;0.00;0.00;;;2.00;99.90;;;;;;6154545;23;20013;-81
2023/03/05 06:30:45;;;;;;;0.00;0.00;;;3.00;99.90;;;;;;6153092;23;20017;-81
2023/03/05 06:33:11;;;;;;;0.20;0.00;;;2.00;99.90;;;;;;6177932;23;20014;-82
2023/03/05 06:35:41;;;;;;;0.40;0.10;;;2.30;99.90;;;;;;6178840;23;20014;-81
2023/03/05 06:38:09;;;;;;;0.13;0.00;;;2.10;99.90;;;;;;6130662;23;20084;-82
2023/03/05 06:40:38;;;;;;;0.00;0.00;;;2.00;99.90;;;;;;6155463;23;20069;-81
2023/03/05 06:43:03;;;;;;;0.00;0.00;;;2.00;99.90;;;;;;6154038;23;20021;-81
2023/03/05 06:45:29;;;;;;;0.13;0.00;;;2.00;99.90;;;;;;6178743;23;20077;-81
2023/03/05 06:47:55;;;;;;;0.00;0.00;;;2.00;99.90;;;;;;6154159;23;20029;-82
2023/03/05 06:50:20;;;;;;;0.00;0.00;;;2.00;99.90;;;;;;6154537;23;20018;-81
2023/03/05 06:52:49;;;;;;;0.00;0.00;;;2.10;99.90;;;;;;6153281;23;20013;-82
2023/03/05 06:55:14;;;;;;;0.00;0.00;;;2.00;99.90;;;;;;6153658;23;20434;-82
2023/03/05 06:57:40;;;;;;;0.00;0.00;;;2.00;99.90;;;;;;6178559;23;20019;-81
2023/03/05 07:00:08;;;;;;;0.00;0.00;;;2.00;99.90;;;;;;6154304;23;20017;-81
2023/03/05 07:02:36;;;;;;;0.00;0.00;;;2.00;99.90;;;;;;6177725;23;20021;-81
2023/03/05 07:05:01;;;;;;;0.00;0.00;;;2.20;99.90;;;;;;6153809;23;20028;-81
2023/03/05 07:07:27;;;;;;;0.20;0.20;;;2.00;99.90;;;;;;6155800;23;20339;-81
2023/03/05 07:09:53;;;;;;;0.07;0.07;;;2.10;99.90;;;;;;6153712;23;20598;-81
2023/03/05 07:12:18;;;;;;;0.00;0.00;;;2.20;99.90;;;;;;6154003;23;20335;-81
2023/03/05 07:14:44;;;;;;;0.30;0.20;;;2.10;99.90;;;;;;6178152;23;20018;-81
2023/03/05 07:17:10;;;;;;;0.00;0.00;;;2.20;99.90;;;;;;6178977;23;20025;-81
2023/03/05 07:19:37;;;;;;;0.73;0.10;;;2.20;99.90;;;;;;6128993;23;20029;-81
2023/03/05 07:22:02;;;;;;;0.00;0.00;;;2.30;99.90;;;;;;6155478;23;20021;-81
2023/03/05 07:24:28;;;;;;;0.03;0.03;;;2.30;99.90;;;;;;6155284;23;20025;-81
2023/03/05 07:26:58;;;;;;;0.00;0.00;;;2.40;99.90;;;;;;6178177;23;20469;-80
2023/03/05 07:29:25;;;;;;;0.00;0.00;;;2.50;99.90;;;;;;6155896;23;20022;-89
2023/03/05 07:31:51;;;;;;;0.00;0.00;;;2.70;99.90;;;;;;6153406;23;20022;-85
2023/03/05 07:34:17;;;;;;;0.00;0.00;;;2.70;99.90;;;;;;6177999;23;20433;-84
2023/03/05 07:36:43;;;;;;;0.00;0.00;;;2.80;99.90;;;;;;6153298;23;20013;-84
2023/03/05 07:39:10;;;;;;;0.10;0.00;;;3.00;99.90;;;;;;6178641;23;20248;-84
2023/03/05 07:41:36;;;;;;;0.00;0.00;;;3.20;99.90;;;;;;6153571;23;20446;-83
2023/03/05 07:44:02;;;;;;;0.10;0.00;;;3.40;99.90;;;;;;6178112;23;20032;-81
2023/03/05 07:46:31;;;;;;;0.00;0.00;;;3.60;99.90;;;;;;6155178;23;20022;-80
2023/03/05 07:48:57;;;;;;;0.30;0.00;;;3.90;99.90;;;;;;6152820;23;20265;-81
2023/03/05 07:51:24;;;;;;;0.33;0.10;;;4.10;99.90;;;;;;6128763;23;20427;-82
2023/03/05 07:53:52;;;;;;;0.00;0.00;;;4.10;99.90;;;;;;6178180;23;20104;-82
2023/03/05 07:56:23;;;;;;;0.00;0.00;;;4.10;99.90;;;;;;6155159;23;20021;-81
2023/03/05 07:58:48;;;;;;;0.00;0.00;;;4.10;99.90;;;;;;6178208;23;20076;-81
2023/03/05 08:01:14;;;;;;;0.07;0.07;;;4.20;99.90;;;;;;6155239;23;20053;-81
2023/03/05 08:03:43;;;;;;;0.00;0.00;;;4.30;99.90;;;;;;6154395;23;20024;-80
2023/03/05 08:06:10;;;;;;;0.10;0.10;;;4.90;99.90;;;;;;6155051;23;20013;-81
2023/03/05 08:08:36;;;;;;;;;;;4.50;99.90;;;;;;6154386;23;20092;-82
2023/03/05 08:11:07;;;;;;;0.10;0.10;;;4.50;99.90;;;;;;6153025;23;20352;-83
2023/03/05 08:13:32;;;;;;;0.08;0.08;;;4.40;99.90;;;;;;6153393;23;20017;-82
2023/03/05 08:15:58;;;;;;;0.00;0.00;;;4.50;99.90;;;;;;6177704;23;20446;-83
2023/03/05 08:18:24;;;;;;;0.00;0.00;;;4.40;99.90;;;;;;6177986;23;20018;-83
2023/03/05 08:20:50;;;;;;;0.07;0.00;;;4.50;99.90;;;;;;6153937;23;20057;-82
2023/03/05 08:23:16;;;;;;;0.00;0.00;;;4.60;99.90;;;;;;6178141;23;20025;-82
2023/03/05 08:25:44;;;;;;;0.10;0.00;;;4.80;99.90;;;;;;6152692;23;20022;-82
2023/03/05 08:28:10;;;;;;;0.05;0.05;;;5.10;99.90;;;;;;6178504;23;20023;-83
2023/03/05 08:30:36;;;;;;;0.27;0.10;;;5.20;99.90;;;;;;6155061;23;20053;-83
2023/03/05 08:33:01;;;;;;;0.40;0.10;;;5.40;99.90;;;;;;6154575;23;20020;-81
2023/03/05 08:35:27;;;;;;;0.00;0.00;;;5.40;99.90;;;;;;6154846;23;20018;-83
2023/03/05 08:37:53;;;;;;;0.00;0.00;;;5.30;99.90;;;;;;6153015;23;20022;-83
2023/03/05 08:40:19;;;;;;;0.00;0.00;;;5.20;99.90;;;;;;6154761;23;20029;-82
2023/03/05 08:42:45;;;;;;;0.00;0.00;;;5.10;99.90;;;;;;6177734;23;20018;-82
2023/03/05 08:45:11;;;;;;;0.00;0.00;;;5.10;99.90;;;;;;6154886;23;20280;-82
2023/03/05 08:47:36;;;;;;;0.00;0.00;;;5.00;99.90;;;;;;6155423;23;20013;-82
2023/03/05 08:50:02;;;;;;;0.20;0.10;;;5.10;99.90;;;;;;6156649;23;20152;-82
2023/03/05 08:52:28;;;;;;;0.10;0.10;;;5.10;99.90;;;;;;6179676;23;20068;-81
2023/03/05 08:54:54;;;;;;;0.00;0.00;;;5.10;99.90;;;;;;6156161;23;20018;-80
2023/03/05 08:57:19;;;;;;;0.07;0.07;;;5.20;99.90;;;;;;6179776;23;20017;-82
2023/03/05 08:59:45;;;;;;;1.50;0.10;;;5.30;99.90;;;;;;6179451;23;20447;-81
2023/03/05 09:02:12;;;;;;;0.07;0.07;;;5.60;99.90;;;;;;6179786;23;20017;-80
2023/03/05 09:04:38;;;;;;;0.08;0.08;;;6.10;99.90;;;;;;6156537;23;20481;-79
2023/03/05 09:07:04;;;;;;;0.22;0.10;;;6.40;99.90;;;;;;6179332;23;20021;-80
2023/03/05 09:09:31;;;;;;;0.10;0.10;;;6.80;99.90;;;;;;6154896;23;20324;-81
2023/03/05 09:11:59;;;;;;;0.00;0.00;;;7.10;99.90;;;;;;6179153;23;20018;-80
2023/03/05 09:14:27;;;;;;;0.00;0.00;;;7.20;99.90;;;;;;6154927;23;20097;-80
2023/03/05 09:16:53;;;;;;;0.00;0.00;;;7.20;99.90;;;;;;6154389;23;20443;-80
2023/03/05 09:19:19;;;;;;;0.00;0.00;;;7.20;99.90;;;;;;6154621;23;20148;-81
2023/03/05 09:21:44;;;;;;;0.07;0.07;;;7.10;99.90;;;;;;6179372;23;20049;-80
2023/03/05 09:24:10;;;;;;;0.00;0.00;;;7.20;99.90;;;;;;6179181;23;20021;-79
2023/03/05 09:26:36;;;;;;;0.80;0.00;;;7.30;99.90;;;;;;6154692;23;20439;-81
2023/03/05 09:29:02;;;;;;;0.00;0.00;;;7.60;99.90;;;;;;6179167;23;20052;-81
2023/03/05 09:31:28;;;;;;;0.30;0.10;;;7.80;99.90;;;;;;6129836;23;20064;-82
2023/03/05 09:33:54;;;;;;;0.00;0.00;;;7.90;99.90;;;;;;6178955;23;20025;-81
2023/03/05 09:36:23;;;;;;;0.00;0.00;;;8.00;99.90;;;;;;6155991;23;20032;-79
2023/03/05 09:38:49;;;;;;;0.00;0.00;;;8.00;99.90;;;;;;6156118;23;20022;-84
2023/03/05 09:41:19;;;;;;;0.00;0.00;;;8.20;99.90;;;;;;6154338;23;20021;-80
2023/03/05 09:44:08;;;;;;;0.20;0.20;;;8.10;99.90;;;;;;6156139;23;20018;-80
2023/03/05 09:46:43;;;;;;;0.00;0.00;;;7.90;99.90;;;;;;6154522;23;20021;-81
2023/03/05 09:49:19;;;;;;;0.00;0.00;;;7.90;99.90;;;;;;6155558;23;20021;-82
2023/03/05 09:51:49;;;;;;;0.00;0.00;;;7.80;99.90;;;;;;6154331;23;20028;-80
2023/03/05 09:54:28;;;;;;;0.00;0.00;;;7.70;99.90;;;;;;6178268;23;20022;-80
2023/03/05 09:56:57;;;;;;;0.00;0.00;;;7.50;99.90;;;;;;6179035;23;20017;-80
2023/03/05 09:59:27;;;;;;;0.00;0.00;;;7.20;99.90;;;;;;6155750;23;20014;-80
2023/03/05 10:02:00;;;;;;;0.00;0.00;;;7.10;99.90;;;;;;6153930;23;20021;-81
2023/03/05 10:04:43;;;;;;;0.25;0.00;;;7.00;99.90;;;;;;6156090;23;20101;-80
2023/03/05 10:07:44;;;;;;;0.00;0.00;;;6.90;99.90;;;;;;6154086;23;20084;-80
2023/03/05 10:10:16;;;;;;;0.00;0.00;;;6.60;99.90;;;;;;6125875;23;20089;-80
2023/03/05 10:12:44;;;;;;;0.00;0.00;;;6.00;99.90;;;;;;6179095;23;20079;-80
2023/03/05 10:15:50;;;;;;;0.00;0.00;;;5.50;99.90;;;;;;6153844;23;20072;-82
2023/03/05 10:18:30;;;;;;;0.00;0.00;;;5.20;99.90;;;;;;6155339;23;20022;-80
2023/03/05 10:21:03;;;;;;;0.00;0.00;;;5.00;99.90;;;;;;6150394;23;20029;-80
2023/03/05 10:23:42;;;;;;;0.03;0.00;;;4.90;99.90;;;;;;6155542;23;20018;-82
2023/03/05 10:26:42;;;;;;;0.00;0.00;;;4.90;99.90;;;;;;6178689;23;20021;-82
2023/03/05 10:29:22;;;;;;;0.00;0.00;;;5.00;99.90;;;;;;6145442;23;20021;-82
2023/03/05 10:32:14;;;;;;;0.00;0.00;;;5.20;99.90;;;;;;6179006;23;20064;-82
2023/03/05 10:34:52;;;;;;;0.00;0.00;;;5.60;99.90;;;;;;6153409;23;20101;-82
2023/03/05 10:37:53;;;;;;;0.10;0.10;;;6.20;99.90;;;;;;6157025;23;20014;-84
2023/03/05 10:40:31;;;;;;;0.15;0.15;;;6.50;99.90;;;;;;6178676;23;20085;-80
2023/03/05 10:43:05;;;;;;;0.00;0.00;;;6.40;99.90;;;;;;6153484;23;20468;-80
2023/03/05 10:45:46;;;;;;;0.10;0.10;;;6.30;99.90;;;;;;6155457;23;20068;-81
2023/03/05 10:48:24;;;;;;;0.10;0.10;;;6.00;99.90;;;;;;6178297;23;20108;-81
2023/03/05 10:51:09;;;;;;;0.05;0.00;;;5.90;99.90;;;;;;6178896;23;20021;-80
2023/03/05 10:53:40;;;;;;;0.00;0.00;;;5.70;99.90;;;;;;6178352;23;20089;-81
2023/03/05 10:56:06;;;;;;;0.00;0.00;;;5.60;99.90;;;;;;6178306;23;20327;-80
2023/03/05 10:58:32;;;;;;;0.13;0.13;;;5.60;99.90;;;;;;6155297;23;20022;-82
2023/03/05 11:01:04;;;;;;;0.00;0.00;;;5.60;99.90;;;;;;6178767;23;20017;-79
2023/03/05 11:03:50;;;;;;;0.00;0.00;;;5.70;99.90;;;;;;6155346;23;20013;-81
2023/03/05 11:06:27;;;;;;;0.20;0.10;;;5.70;99.90;;;;;;6177533;23;20074;-80
2023/03/05 11:08:52;;;;;;;0.10;0.10;;;6.00;99.90;;;;;;6155026;23;20021;-80
2023/03/05 11:11:20;;;;;;;0.00;0.00;;;6.50;99.90;;;;;;6153344;23;20076;-80
2023/03/05 11:13:57;;;;;;;0.08;0.08;;;6.90;99.90;;;;;;6153399;23;20463;-81
2023/03/05 11:16:44;;;;;;;0.00;0.00;;;7.20;99.90;;;;;;6153911;23;20022;-87
2023/03/05 11:19:19;;;;;;;0.00;0.00;;;7.40;99.90;;;;;;6156945;23;20084;-79
2023/03/05 11:22:03;;;;;;;0.52;0.05;;;7.60;99.90;;;;;;6153061;23;20092;-81
2023/03/05 11:24:29;;;;;;;0.10;0.10;;;7.90;99.90;;;;;;6153839;23;20025;-82
2023/03/05 11:26:56;;;;;;;0.10;0.10;;;8.30;99.90;;;;;;6178122;23;20078;-81
2023/03/05 11:29:31;;;;;;;0.00;0.00;;;8.60;99.90;;;;;;6155046;23;20060;-82
2023/03/05 11:32:22;;;;;;;0.10;0.10;;;8.90;99.90;;;;;;6178305;23;20010;-82
2023/03/05 11:34:48;;;;;;;0.15;0.10;;;9.00;99.90;;;;;;6178370;23;20144;-82
2023/03/05 11:37:31;;;;;;;0.00;0.00;;;9.00;99.90;;;;;;6152869;23;20056;-82
2023/03/05 11:40:21;;;;;;;0.20;0.20;;;8.90;99.90;;;;;;6155346;23;20056;-81
2023/03/05 11:42:54;;;;;;;0.00;0.00;;;8.70;99.90;;;;;;6155165;23;20017;-82
2023/03/05 11:45:22;;;;;;;0.10;0.10;;;8.40;99.90;;;;;;6177906;23;20397;-82
2023/03/05 11:47:50;;;;;;;0.00;0.00;;;8.30;99.90;;;;;;6178139;23;20014;-81
2023/03/05 11:50:27;;;;;;;0.00;0.00;;;8.10;99.90;;;;;;6154879;23;20019;-82
2023/03/05 11:52:54;;;;;;;0.00;0.00;;;8.00;99.90;;;;;;6154974;23;20016;-79
2023/03/05 11:55:24;;;;;;;0.00;0.00;;;8.10;99.90;;;;;;6153127;23;20458;-80
2023/03/05 11:57:50;;;;;;;0.00;0.00;;;8.40;99.90;;;;;;6178014;23;20453;-82
2023/03/05 12:00:20;;;;;;;0.10;0.10;;;8.80;99.90;;;;;;6153133;23;20021;-79
2023/03/05 12:02:52;;;;;;;0.00;0.00;;;9.30;99.90;;;;;;6153202;23;20064;-80
2023/03/05 12:05:18;;;;;;;0.00;0.00;;;9.40;99.90;;;;;;6154941;23;20024;-81
2023/03/05 12:07:48;;;;;;;0.00;0.00;;;9.60;99.90;;;;;;6153040;23;20049;-81
2023/03/05 12:10:21;;;;;;;0.00;0.00;;;9.80;99.90;;;;;;6154580;23;20346;-81
2023/03/05 12:13:04;;;;;;;0.10;0.00;;;9.90;99.90;;;;;;6153166;23;20013;-81
2023/03/05 12:15:57;;;;;;;0.00;0.00;;;10.00;99.90;;;;;;6152897;23;20026;-80
2023/03/05 12:18:39;;;;;;;0.00;0.00;;;9.90;99.90;;;;;;6152536;23;20025;-80
2023/03/05 12:21:31;;;;;;;0.00;0.00;;;9.80;99.90;;;;;;6150927;23;20097;-85
2023/03/05 12:24:02;;;;;;;0.00;0.00;;;9.60;99.90;;;;;;6154736;23;20355;-81
2023/03/05 12:27:02;;;;;;;0.00;0.00;;;9.50;99.90;;;;;;6155913;23;20022;-81
2023/03/05 12:29:48;;;;;;;0.00;0.00;;;9.60;99.90;;;;;;6144356;23;20021;-81
2023/03/05 12:32:30;;;;;;;0.15;0.13;;;9.50;99.90;;;;;;6180080;23;20508;-81
2023/03/05 12:35:03;;;;;;;0.15;0.00;;;9.30;99.90;;;;;;6180761;23;20029;-81
2023/03/05 12:37:28;;;;;;;0.00;0.00;;;9.00;99.90;;;;;;6156923;23;20069;-81
2023/03/05 12:39:57;;;;;;;0.00;0.00;;;8.70;99.90;;;;;;6180517;23;20071;-81
2023/03/05 12:42:45;;;;;;;0.00;0.00;;;8.50;99.90;;;;;;6179733;23;20456;-81
2023/03/05 12:45:15;;;;;;;0.00;0.00;;;8.40;99.90;;;;;;6155790;23;20027;-81
2023/03/05 12:47:42;;;;;;;0.63;0.20;;;8.40;99.90;;;;;;6155616;23;20057;-81
2023/03/05 12:50:26;;;;;;;0.00;0.00;;;8.40;99.90;;;;;;6157166;23;20084;-81
2023/03/05 12:53:12;;;;;;;0.00;0.00;;;8.50;99.90;;;;;;6180351;23;20054;-80
2023/03/05 12:55:44;;;;;;;0.00;0.00;;;8.50;99.90;;;;;;6156988;23;20022;-81
2023/03/05 12:58:19;;;;;;;0.10;0.10;;;8.40;99.90;;;;;;6179954;23;20097;-80
2023/03/05 13:01:06;;;;;;;0.00;0.00;;;8.30;99.90;;;;;;6157373;23;20057;-81
2023/03/05 13:03:45;;;;;;;0.00;0.00;;;8.20;99.90;;;;;;6180010;23;20014;-81
2023/03/05 13:06:25;;;;;;;0.03;0.03;;;8.10;99.90;;;;;;6157219;23;20375;-81
2023/03/05 13:09:03;;;;;;;0.00;0.00;;;7.90;99.90;;;;;;6180382;23;20084;-81